Detall de PIREP

Printer-friendly versionPDF version

[2016/02/10 08:25:00]
Flight IATA:CT2114
Pilot Number:041
Company ICAO:CAT
Aircraft Type:F70/A
PAX:62
Aircraft Registration:PFJ
Departing Airport: LEVC
Destination Airport: LEXJ
Alternate Airport:LEBB
Online: VATSIM
Route:CENTA A33 PRADO UN733 CJN DCT RBO UN867 BLV
Flight Level:FL260
No Slew and time accel
No pause
Crash detect
Detect pilot in Cockpit between each 30 and 45 minutes
08:25 Zero fuel Weight: 72667 Lbs, Fuel Weight: 11342 Lbs
08:25 VATSIM:LEVC 100800Z 24011KT 210V280 9999 FEW025 SCT060 17/07 Q1015 NOSIG
08:25 VATSIM:LEXJ 100800Z 21003KT 8000 -RA SCT012 BKN021 08/07 Q1012
08:25 VOICE CATALONIAN
08:30 Parking Brakes off
08:37 Take-off
08:37 Take off Weight: 83542 Lbs
08:37 Wind: 253º @ 009 Knots Heading: 295º
08:37 POS N39º 29´ 24´´ W000º 29´ 03´´
08:37 Gear Up: 169 Knots
08:37 Flaps:1 at 169 Knots
08:37 Flaps:0 at 192 Knots
08:52 Wind:311º@025 Knots Heading: 299º Ground Speed: 357 Knots Altitude 24192 ft
08:53 TOC
08:53 Fuel Weight: 9098 Lb
09:07 Wind:325º@019 Knots Heading: 008º Ground Speed: 384 Knots Altitude 26092 ft
09:16 TOD
09:16 Fuel Weight: 7299 Lb
09:22 Wind:275º@042 Knots Heading: 350º Ground Speed: 336 Knots Altitude 16256 ft
09:34 Flaps:2 at 248 Knots
09:37 Wind:196º@006 Knots Heading: 288º Ground Speed: 165 Knots Altitude 2982 ft
09:37 Flaps:3 at 161 Knots
09:38 Gear Down: 143 Knots
09:39 Flaps:4 at 141 Knots
09:40 Gear Up: 126 Knots
09:40 Flaps:0 at 126 Knots
09:40 Gear Down: 125 Knots
09:40 Flaps:4 at 126 Knots
09:41 TouchDown:Rate -143 ft/min Speed: 113 Knots
09:41 VATSIM:LEXJ 100900Z 00000KT 8000 -RA SCT016 BKN036 08/08 Q1011
09:41 Land
09:41 Wind:214º@002 Knots
09:41 Heading: 289º
09:41 Flight Duration: 01:04
09:41 Landing Weight: 78891 Lbs
09:41 POS N43º 25´ 44´´ W003º 49´ 41´´
09:44 Parking brakes on
09:44 Block to Block Duration: 01:14
09:44 Final Fuel: 6080 Lbls
09:44 Spent Fuel: 5262 Lbls
09:44 Flight Length: 338 NM
09:44 TOD Land Length: 110 NM

Exportar CSV

Powered by Drupal - Modified by Danger4k